createdAt,value
2022-12-22T00:02:10.429Z,8.18
2022-12-22T00:05:03.896Z,8.37
2022-12-22T00:07:53.547Z,8.25
2022-12-22T00:10:40.900Z,7.55
2022-12-22T00:13:30.600Z,8.33
2022-12-22T00:16:18.113Z,8.03
2022-12-22T00:22:18.828Z,7.03
2022-12-22T00:25:06.689Z,7.05
2022-12-22T00:27:54.840Z,7.83
2022-12-22T00:30:43.315Z,6.47
2022-12-22T00:33:33.935Z,6.65
2022-12-22T00:36:23.176Z,6.92
2022-12-22T00:39:10.611Z,6.25
2022-12-22T00:41:58.621Z,6.37
2022-12-22T00:44:45.875Z,6.28
2022-12-22T00:47:45.068Z,6.05
2022-12-22T00:50:35.328Z,6.20
2022-12-22T00:53:24.644Z,5.92
2022-12-22T00:56:12.068Z,5.67
2022-12-22T00:58:59.310Z,6.12
2022-12-22T01:01:46.741Z,5.90
2022-12-22T01:04:34.170Z,5.80
2022-12-22T01:07:24.994Z,5.87
2022-12-22T01:10:13.349Z,6.28
2022-12-22T01:13:01.981Z,6.67
2022-12-22T01:15:50.515Z,5.58
2022-12-22T01:18:38.201Z,5.78
2022-12-22T01:21:25.869Z,5.58
2022-12-22T01:24:13.044Z,5.70
2022-12-22T01:27:00.557Z,5.22
2022-12-22T01:29:48.363Z,5.05
2022-12-22T01:32:35.675Z,5.85
2022-12-22T01:35:23.449Z,5.05
2022-12-22T01:38:11.178Z,5.03
2022-12-22T01:40:58.708Z,5.08
2022-12-22T01:43:47.002Z,5.08
2022-12-22T01:46:42.836Z,4.95
2022-12-22T01:49:39.597Z,4.90
2022-12-22T01:52:29.351Z,5.40
2022-12-22T01:55:19.880Z,4.90
2022-12-22T01:58:07.069Z,5.05
2022-12-22T02:00:54.613Z,5.10
2022-12-22T02:03:42.119Z,5.40
2022-12-22T02:06:33.370Z,5.08
2022-12-22T02:09:23.694Z,5.22
2022-12-22T02:12:20.096Z,5.03
2022-12-22T02:15:10.356Z,5.30
2022-12-22T02:18:03.599Z,5.80
2022-12-22T02:20:56.846Z,5.62
2022-12-22T02:23:48.021Z,4.97
2022-12-22T02:26:57.032Z,4.78
2022-12-22T02:29:50.042Z,5.83
2022-12-22T02:32:37.361Z,4.87
2022-12-22T02:35:34.065Z,5.22
2022-12-22T02:38:30.053Z,4.40
2022-12-22T02:41:44.511Z,5.58
2022-12-22T02:44:52.964Z,5.10
2022-12-22T02:47:49.104Z,4.60
2022-12-22T02:50:39.365Z,4.97
2022-12-22T02:53:29.181Z,4.85
2022-12-22T02:56:20.408Z,5.08
2022-12-22T02:59:08.118Z,5.03
2022-12-22T03:01:57.241Z,4.67
2022-12-22T03:04:45.083Z,4.75
2022-12-22T03:07:33.899Z,4.58
2022-12-22T03:10:21.324Z,4.80
2022-12-22T03:13:08.643Z,4.70
2022-12-22T03:15:56.421Z,4.55
2022-12-22T03:18:44.188Z,4.53
2022-12-22T03:21:32.221Z,4.57
2022-12-22T03:26:12.378Z,4.22
2022-12-22T03:28:41.941Z,4.37
2022-12-22T03:36:10.217Z,4.45
2022-12-22T03:38:39.634Z,4.65
2022-12-22T03:41:10.918Z,4.87
2022-12-22T03:43:58.479Z,4.60
2022-12-22T03:46:33.507Z,4.50
2022-12-22T03:49:11.900Z,4.28
2022-12-22T03:51:44.554Z,4.00
2022-12-22T03:54:19.737Z,3.90
2022-12-22T03:56:52.143Z,3.90
2022-12-22T03:59:22.700Z,4.05
2022-12-22T04:01:54.820Z,3.60
2022-12-22T04:04:26.673Z,3.83
2022-12-22T04:06:56.682Z,4.30
2022-12-22T04:09:27.671Z,4.28
2022-12-22T04:12:16.018Z,4.35
2022-12-22T04:14:45.452Z,3.77
2022-12-22T04:17:14.914Z,3.92
2022-12-22T04:19:44.378Z,4.65
2022-12-22T04:22:13.798Z,3.95
2022-12-22T04:24:43.236Z,4.20
2022-12-22T04:27:12.845Z,3.80
2022-12-22T04:29:42.287Z,4.10
2022-12-22T04:32:11.784Z,4.05
2022-12-22T04:34:41.736Z,4.25
2022-12-22T12:33:49.751Z,2.02
2022-12-22T12:36:25.326Z,2.10
2022-12-22T12:39:20.258Z,2.27
2022-12-22T12:42:09.399Z,1.97
2022-12-22T12:44:40.428Z,1.60
2022-12-22T12:47:25.389Z,1.67
2022-12-22T12:49:56.677Z,2.75
2022-12-22T12:52:43.726Z,2.00
2022-12-22T12:55:31.900Z,2.10
2022-12-22T12:58:01.907Z,3.00
2022-12-22T13:00:41.904Z,1.87
2022-12-22T13:03:30.739Z,3.05
2022-12-22T13:05:57.064Z,2.00
2022-12-22T13:08:32.121Z,2.22
2022-12-22T13:11:07.128Z,2.60
2022-12-22T13:13:39.909Z,2.20
2022-12-22T13:16:15.223Z,2.70
2022-12-22T13:18:51.090Z,3.20
2022-12-22T13:26:36.633Z,2.62
2022-12-22T13:29:18.600Z,2.47
2022-12-22T13:31:51.118Z,3.22
2022-12-22T13:35:20.201Z,2.87
2022-12-22T13:37:22.442Z,2.40
2022-12-22T13:40:24.110Z,2.33
2022-12-22T13:43:08.325Z,2.27
2022-12-22T13:45:53.135Z,2.10
2022-12-22T13:48:29.909Z,2.22
2022-12-22T13:51:02.505Z,2.02
2022-12-22T13:54:07.139Z,2.17
2022-12-22T13:56:09.523Z,1.70
2022-12-22T13:58:43.533Z,1.97
2022-12-22T14:01:17.997Z,1.85
2022-12-22T14:04:02.547Z,1.85
2022-12-22T14:06:31.032Z,2.35
2022-12-22T14:09:20.762Z,1.72
2022-12-22T14:11:59.056Z,2.10
2022-12-22T14:14:31.911Z,2.25
2022-12-22T14:17:01.853Z,1.95
2022-12-22T14:19:37.498Z,1.77
2022-12-22T14:22:13.353Z,1.70
2022-12-22T14:24:45.849Z,1.62
2022-12-22T14:29:55.770Z,1.50
2022-12-22T14:32:40.516Z,1.70
2022-12-22T14:35:25.628Z,1.90
2022-12-22T14:38:10.049Z,2.05
2022-12-22T14:40:42.091Z,1.95
2022-12-22T14:43:20.584Z,2.30
2022-12-22T14:45:52.451Z,1.52
2022-12-22T14:48:27.540Z,1.80
2022-12-22T14:50:58.014Z,1.63
2022-12-22T14:53:33.816Z,1.98
2022-12-22T14:56:03.702Z,2.05
2022-12-22T14:58:37.154Z,1.85
2022-12-22T15:01:21.996Z,2.00
2022-12-22T15:04:09.948Z,1.80
2022-12-22T15:06:43.716Z,2.10
2022-12-22T15:09:39.625Z,1.70
2022-12-22T15:11:59.227Z,1.90
2022-12-22T15:14:38.324Z,2.05
2022-12-22T15:17:03.973Z,1.98
2022-12-22T15:19:36.343Z,1.87
2022-12-22T15:22:10.032Z,1.92
2022-12-22T15:24:39.821Z,2.12
2022-12-22T15:27:13.537Z,2.25
2022-12-22T15:29:43.480Z,2.10
2022-12-22T15:32:15.851Z,2.33
2022-12-22T15:34:45.785Z,2.77
2022-12-22T15:37:15.225Z,2.45
2022-12-22T15:39:44.653Z,3.55
2022-12-22T15:42:14.180Z,2.50
2022-12-22T15:44:43.681Z,2.77
2022-12-22T15:47:13.933Z,2.55
2022-12-22T15:49:43.625Z,8.08
2022-12-22T15:52:14.888Z,10.55
2022-12-22T15:54:44.753Z,4.80
2022-12-22T15:57:14.625Z,7.28
2022-12-22T15:59:44.368Z,7.62
2022-12-22T16:02:14.997Z,8.25
2022-12-22T16:04:44.916Z,4.42
2022-12-22T16:07:14.498Z,5.78
2022-12-22T16:09:47.041Z,30.05
2022-12-22T16:12:18.886Z,32.10
2022-12-22T16:14:51.664Z,13.88
2022-12-22T16:17:26.366Z,7.50
2022-12-22T16:19:56.145Z,6.25
2022-12-22T16:22:34.247Z,5.40
2022-12-22T16:25:07.639Z,12.07
2022-12-22T16:27:40.158Z,4.33
2022-12-22T16:30:13.401Z,3.58
2022-12-22T16:35:16.628Z,4.67
2022-12-22T16:37:49.091Z,3.67
2022-12-22T16:40:20.525Z,4.40
2022-12-22T16:45:42.840Z,5.58
2022-12-22T16:48:21.482Z,8.97
2022-12-22T16:50:52.038Z,5.83
2022-12-22T16:53:21.429Z,3.55
2022-12-22T16:55:50.947Z,3.00
2022-12-22T16:58:21.418Z,3.12
2022-12-22T17:00:50.997Z,6.53
2022-12-22T17:03:28.857Z,4.40
2022-12-22T17:06:01.783Z,4.20
2022-12-22T17:08:34.658Z,2.70
2022-12-22T17:11:10.769Z,2.60
2022-12-22T17:13:39.433Z,2.25
2022-12-22T17:16:11.996Z,2.30
2022-12-22T17:18:42.029Z,2.00
2022-12-22T17:21:12.397Z,2.30
2022-12-22T17:23:48.036Z,2.70
2022-12-22T17:26:21.077Z,2.15
2022-12-22T17:31:23.232Z,1.95
2022-12-22T17:36:30.677Z,2.37
2022-12-22T17:39:00.842Z,2.83
2022-12-22T17:41:31.217Z,2.58
2022-12-22T17:44:00.704Z,2.77
2022-12-22T17:46:30.371Z,2.83
2022-12-22T17:49:00.474Z,2.52
2022-12-22T17:51:30.783Z,2.77
2022-12-22T17:54:01.538Z,3.40
2022-12-22T17:56:32.360Z,4.30
2022-12-22T17:59:01.865Z,5.17
2022-12-22T18:01:34.040Z,7.78
2022-12-22T18:04:03.859Z,10.90
2022-12-22T18:06:35.920Z,10.93
2022-12-22T18:09:07.813Z,10.43
2022-12-22T18:14:09.753Z,11.33
2022-12-22T18:16:39.959Z,11.00
2022-12-22T18:19:09.490Z,11.10
2022-12-22T18:21:39.335Z,17.50
2022-12-22T18:24:17.490Z,36.40
2022-12-22T18:26:47.969Z,38.53
2022-12-22T18:29:18.243Z,27.87
2022-12-22T18:31:48.154Z,17.87
2022-12-22T18:34:17.646Z,10.53
2022-12-22T18:36:48.043Z,9.90
2022-12-22T18:39:20.464Z,9.15
2022-12-22T18:41:49.957Z,7.90
2022-12-22T18:44:20.747Z,9.18
2022-12-22T18:46:50.830Z,7.50
2022-12-22T18:49:21.346Z,7.12
2022-12-22T18:51:51.088Z,7.08
2022-12-22T18:54:23.603Z,7.03
2022-12-22T18:56:53.580Z,7.50
2022-12-22T18:59:28.034Z,6.90
2022-12-22T19:02:02.276Z,8.33
2022-12-22T19:04:32.171Z,14.38
2022-12-22T19:07:01.624Z,9.75
2022-12-22T19:09:32.057Z,9.15
2022-12-22T19:12:01.511Z,8.23
2022-12-22T19:14:33.033Z,8.80
2022-12-22T19:17:02.601Z,8.78
2022-12-22T19:19:32.282Z,8.85
2022-12-22T19:22:01.708Z,8.90
2022-12-22T19:24:31.159Z,10.03
2022-12-22T19:27:01.891Z,13.80
2022-12-22T19:29:31.405Z,12.88
2022-12-22T19:32:00.941Z,12.73
2022-12-22T19:34:31.070Z,11.00
2022-12-22T19:37:00.523Z,11.90
2022-12-22T19:39:30.174Z,12.20
2022-12-22T19:41:59.668Z,12.43
2022-12-22T19:44:31.709Z,13.93
2022-12-22T19:47:02.667Z,12.70
2022-12-22T19:49:32.229Z,12.67
2022-12-22T19:52:01.664Z,14.18
2022-12-22T19:54:33.097Z,12.98
2022-12-22T19:57:04.597Z,13.48
2022-12-22T19:59:46.048Z,13.45
2022-12-22T20:04:46.486Z,13.80
2022-12-22T20:07:21.431Z,14.50
2022-12-22T20:09:51.245Z,13.58
2022-12-22T20:12:27.043Z,13.72
2022-12-22T20:14:56.976Z,11.30
2022-12-22T20:17:26.645Z,12.50
2022-12-22T20:19:56.086Z,16.27
2022-12-22T20:22:26.113Z,17.12
2022-12-22T20:24:55.627Z,16.32
2022-12-22T20:27:31.252Z,19.80
2022-12-22T20:30:01.377Z,30.17
2022-12-22T20:32:34.700Z,28.52
2022-12-22T20:35:04.888Z,28.05
2022-12-22T20:37:34.352Z,27.42
2022-12-22T20:40:06.363Z,26.77
2022-12-22T20:42:35.920Z,21.50
2022-12-22T20:45:05.488Z,19.95
2022-12-22T20:47:36.547Z,18.85
2022-12-22T20:50:25.577Z,17.07
2022-12-22T20:52:56.630Z,15.68
2022-12-22T20:55:28.809Z,19.55
2022-12-22T20:58:00.793Z,21.70
2022-12-22T21:00:30.687Z,21.33
2022-12-22T21:03:00.490Z,25.70
2022-12-22T21:05:31.304Z,18.20
2022-12-22T21:08:00.742Z,18.45
2022-12-22T21:10:31.190Z,18.07
2022-12-22T21:13:00.625Z,15.98
2022-12-22T21:15:31.599Z,14.45
2022-12-22T21:18:01.113Z,14.98
2022-12-22T21:20:32.439Z,15.18
2022-12-22T21:23:01.885Z,16.05
2022-12-22T21:25:31.316Z,19.75
2022-12-22T21:28:03.832Z,18.00
2022-12-22T21:30:33.330Z,17.20
2022-12-22T21:33:03.341Z,17.12
2022-12-22T21:35:38.176Z,16.57
2022-12-22T21:38:07.757Z,16.85
2022-12-22T21:40:37.187Z,15.53
2022-12-22T21:43:07.215Z,15.80
2022-12-22T21:45:42.684Z,14.93
2022-12-22T21:48:15.849Z,14.98
2022-12-22T21:50:46.001Z,15.10
2022-12-22T21:53:21.746Z,13.98
2022-12-22T21:55:46.649Z,12.28
2022-12-22T21:58:16.119Z,10.53
2022-12-22T22:00:48.614Z,8.88
2022-12-22T22:03:18.932Z,7.45
2022-12-22T22:05:48.983Z,6.65
2022-12-22T22:08:18.458Z,5.03
2022-12-22T22:10:47.894Z,5.12
2022-12-22T22:13:17.335Z,4.53
2022-12-22T22:15:47.243Z,4.28
2022-12-22T22:18:21.385Z,4.03
2022-12-22T22:20:51.492Z,4.10
2022-12-22T22:23:20.924Z,5.33
2022-12-22T22:25:53.775Z,5.40
2022-12-22T22:30:51.812Z,4.87
2022-12-22T22:33:21.578Z,4.50
2022-12-22T22:35:58.065Z,4.47
2022-12-22T22:38:32.797Z,4.75
2022-12-22T22:41:02.776Z,5.35
2022-12-22T22:43:41.340Z,4.53
2022-12-22T22:46:08.478Z,4.67
2022-12-22T22:48:38.013Z,5.33
2022-12-22T22:51:14.553Z,5.20
2022-12-22T22:53:46.183Z,5.35
2022-12-22T22:56:16.153Z,4.30
2022-12-22T22:58:45.594Z,4.83
2022-12-22T23:01:15.470Z,4.67
2022-12-22T23:03:45.275Z,4.92
2022-12-22T23:06:15.957Z,4.53
2022-12-22T23:08:47.082Z,4.60
2022-12-22T23:11:17.829Z,4.92
2022-12-22T23:13:47.473Z,4.33
2022-12-22T23:16:18.882Z,5.80
2022-12-22T23:18:49.133Z,4.50
2022-12-22T23:21:18.594Z,4.55
2022-12-22T23:23:48.081Z,4.85
2022-12-22T23:26:17.505Z,5.12
2022-12-22T23:28:47.080Z,4.87
2022-12-22T23:31:17.132Z,4.87
2022-12-22T23:33:46.578Z,4.42
2022-12-22T23:36:16.561Z,5.08
2022-12-22T23:38:46.696Z,5.58
2022-12-22T23:41:16.131Z,6.03
2022-12-22T23:43:46.580Z,5.43
2022-12-22T23:46:18.158Z,5.20
2022-12-22T23:48:53.727Z,5.23
2022-12-22T23:51:25.500Z,5.20
2022-12-22T23:53:56.433Z,5.78
2022-12-22T23:56:26.616Z,8.70
2022-12-22T23:58:56.692Z,5.80
